Airfield :
LOGIN :

Register | Disclaimer

   EN    FR    IT 

 










Legend :    VFR   Marginal VFR   IFR   Intensive IFR   Very Intensive IFR
Visi :
Ceiling :
>= 8 km
>= 3000ft
5 to 8 km
1000 to 3000 ft
1500m to 5 km
500 to 1000 ft
800 to 1500m
200 to 500 ft
< 800m
< 200 ft
Symbols :   Thunderstorms  Fog  Heavy snow  Heavy precipitations  Wind > 20 kt
SIGMETs :     Misc.  Thunderstorms  Icing  Turbulence  Mountain Waves  Volcanic Ashes






- Airport Elevation : 46 ft
- IATA code : PAF


LPMT - Montijo Air Base

CURRENT METAR :
  • 080600Z 12002KT 6000 BKN005 14/14 Q1021

EXPIRED METARs :
  • 080500Z 11005KT 6000 OVC003 14/14 Q1021
  • 080400Z 11005KT 0900 FG OVC003 14/14 Q1021

TAF TAF LPMT
Valid from the 08 at 06:00 until the 09 at 06:00 UTC


080509Z 0806/0906 12005KT 6000 OVC003
BECMG 0806/0809 VRB02KT 9999 NSW SCT008 BKN016
PROB40 0806/0808 0500 FG OVC002
TEMPO 0902/0906 6000 -RA FEW012 BKN020



MET'MAP, your aeronautical weather chart ! - Copyright ORBIFLY December 2007 - Disclaimer

ORBIFLY MET'MAP TEAM :

Programming & Development : Alexandra Zaïnal
Concept & original design : Baudouin d'Aumeries
Assistance for programming : Marc-Olivier Méhu
Technical & hardware support : Manuel Goepfert

Contact : metmap@orbifly.com




SOURCES & CREDITS :

   NOAA